Time;durP1;ratioP1;P1;durP2;ratioP2;P2;SDS_P1;SDS_P2;PMS_P1;PMS_P2;Temp;Humidity;BMP_temperature;BMP_pressure;BME280_temperature;BME280_humidity;BME280_pressure;Samples;Min_cycle;Max_cycle;Signal;HPM_P1;HPM_P2
2022/08/25 00:01:37;;;;;;;3.83;2.80;;;;;;;;;;4934387;29;20059;-72
2022/08/25 00:04:16;;;;;;;3.53;2.83;;;;;;;;;;4934383;29;20055;-72
2022/08/25 00:06:47;;;;;;;3.45;2.72;;;;;;;;;;4951783;29;20086;-72
2022/08/25 00:09:22;;;;;;;3.10;2.80;;;;;;;;;;4953591;28;20062;-72
2022/08/25 00:11:50;;;;;;;2.40;2.20;;;;;;;;;;4953463;28;20047;-72
2022/08/25 00:14:38;;;;;;;3.08;2.80;;;;;;;;;;4913012;29;20056;-73
2022/08/25 00:17:19;;;;;;;3.83;2.75;;;;;;;;;;4914223;29;20427;-72
2022/08/25 00:19:52;;;;;;;;;;;;;;;;;;4916799;29;20052;-73
2022/08/25 00:22:31;;;;;;;4.88;3.13;;;;;;;;;;4916455;29;19930;-73
2022/08/25 00:25:02;;;;;;;3.15;2.85;;;;;;;;;;4916412;29;20052;-73
2022/08/25 00:27:42;;;;;;;3.17;2.70;;;;;;;;;;4916779;29;20131;-73
2022/08/25 00:30:13;;;;;;;5.30;3.17;;;;;;;;;;4916376;29;20052;-73
2022/08/25 00:32:48;;;;;;;3.17;2.80;;;;;;;;;;4916770;29;20048;-72
2022/08/25 00:35:24;;;;;;;3.30;2.92;;;;;;;;;;4915660;29;20073;-73
2022/08/25 00:38:01;;;;;;;4.50;3.45;;;;;;;;;;4915923;29;20063;-72
2022/08/25 00:40:43;;;;;;;3.33;2.80;;;;;;;;;;4917257;29;20096;-72
2022/08/25 00:43:19;;;;;;;3.55;2.63;;;;;;;;;;4916936;29;20048;-73
2022/08/25 00:45:51;;;;;;;3.40;3.10;;;;;;;;;;4953118;29;20130;-72
2022/08/25 00:48:22;;;;;;;3.28;2.97;;;;;;;;;;4951462;28;20087;-73
2022/08/25 00:50:53;;;;;;;3.10;2.80;;;;;;;;;;4936849;29;20052;-72
2022/08/25 00:53:33;;;;;;;3.50;3.20;;;;;;;;;;4937152;29;20051;-72
2022/08/25 00:56:12;;;;;;;4.18;3.17;;;;;;;;;;4934956;29;20061;-72
2022/08/25 00:59:03;;;;;;;5.60;4.10;;;;;;;;;;4935872;29;20059;-72
2022/08/25 01:01:35;;;;;;;4.63;3.35;;;;;;;;;;4948906;29;20051;-72
2022/08/25 01:04:10;;;;;;;3.97;3.55;;;;;;;;;;4946968;28;20084;-72
2022/08/25 01:06:59;;;;;;;5.65;3.03;;;;;;;;;;4954794;29;20051;-72
2022/08/25 01:09:32;;;;;;;5.75;3.30;;;;;;;;;;4938272;29;20059;-72
2022/08/25 01:12:17;;;;;;;5.90;3.47;;;;;;;;;;4935738;29;20102;-73
2022/08/25 01:14:53;;;;;;;4.15;3.60;;;;;;;;;;4935597;29;20107;-73
2022/08/25 01:17:41;;;;;;;3.88;3.13;;;;;;;;;;4921581;29;20443;-72
2022/08/25 01:20:31;;;;;;;4.65;3.42;;;;;;;;;;4935187;29;20142;-73
2022/08/25 01:23:07;;;;;;;4.40;3.38;;;;;;;;;;4935036;29;20051;-73
2022/08/25 01:26:00;;;;;;;6.18;3.63;;;;;;;;;;4936496;29;20051;-73
2022/08/25 01:29:19;;;;;;;5.28;3.70;;;;;;;;;;4935189;29;20055;-73
2022/08/25 01:31:43;;;;;;;4.78;3.70;;;;;;;;;;4936269;29;20103;-72
2022/08/25 01:34:30;;;;;;;4.18;3.70;;;;;;;;;;4936448;29;20522;-73
2022/08/25 01:37:02;;;;;;;4.32;3.92;;;;;;;;;;4953836;29;20055;-72
2022/08/25 01:39:42;;;;;;;3.95;3.53;;;;;;;;;;4955133;28;20512;-73
2022/08/25 01:42:48;;;;;;;5.32;3.78;;;;;;;;;;4955648;28;20410;-73
2022/08/25 01:45:21;;;;;;;4.97;3.75;;;;;;;;;;4913908;28;20549;-73
2022/08/25 01:47:56;;;;;;;5.13;3.83;;;;;;;;;;4938794;29;20110;-73
2022/08/25 01:50:34;;;;;;;4.10;3.53;;;;;;;;;;4945680;28;20522;-73
2022/08/25 01:53:30;;;;;;;3.72;3.40;;;;;;;;;;4934817;29;20487;-73
2022/08/25 01:56:39;;;;;;;6.70;3.88;;;;;;;;;;4933445;29;20426;-73
2022/08/25 01:59:12;;;;;;;4.78;3.83;;;;;;;;;;4935766;29;20048;-73
2022/08/25 02:01:51;;;;;;;5.78;3.97;;;;;;;;;;4935939;29;20134;-72
2022/08/25 02:04:30;;;;;;;4.82;3.75;;;;;;;;;;4935784;29;20471;-73
2022/08/25 02:07:12;;;;;;;4.38;3.53;;;;;;;;;;4935910;29;20079;-73
2022/08/25 02:09:49;;;;;;;3.88;3.47;;;;;;;;;;4935851;29;20526;-73
2022/08/25 02:12:36;;;;;;;4.15;3.58;;;;;;;;;;4935745;29;20052;-72
2022/08/25 02:15:10;;;;;;;3.95;3.55;;;;;;;;;;4935507;29;20062;-72
2022/08/25 02:17:41;;;;;;;4.10;3.80;;;;;;;;;;4935803;29;20069;-72
2022/08/25 02:20:16;;;;;;;5.78;3.72;;;;;;;;;;4935579;29;20499;-72
2022/08/25 02:23:09;;;;;;;4.13;3.72;;;;;;;;;;4935462;29;20126;-73
2022/08/25 02:25:38;;;;;;;4.65;3.80;;;;;;;;;;4933392;29;20048;-73
2022/08/25 02:28:05;;;;;;;5.13;3.47;;;;;;;;;;4934755;29;20058;-72
2022/08/25 02:30:33;;;;;;;4.35;3.90;;;;;;;;;;4944102;29;20130;-72
2022/08/25 02:33:00;;;;;;;6.95;4.28;;;;;;;;;;4954502;28;20070;-73
2022/08/25 02:35:26;;;;;;;4.93;3.75;;;;;;;;;;4954416;28;20062;-73
2022/08/25 02:37:53;;;;;;;4.95;3.92;;;;;;;;;;4954320;28;20047;-72
2022/08/25 02:40:20;;;;;;;4.13;3.83;;;;;;;;;;4946356;28;20052;-72
2022/08/25 02:42:48;;;;;;;5.53;4.80;;;;;;;;;;4935087;29;20044;-72
2022/08/25 02:45:15;;;;;;;4.45;4.05;;;;;;;;;;4934997;29;20504;-72
2022/08/25 02:47:41;;;;;;;4.80;4.30;;;;;;;;;;4935185;29;20047;-73
2022/08/25 02:50:08;;;;;;;5.93;4.28;;;;;;;;;;4940218;29;20055;-72
2022/08/25 02:52:35;;;;;;;4.95;4.55;;;;;;;;;;4953970;28;20043;-73
2022/08/25 02:55:04;;;;;;;6.13;4.75;;;;;;;;;;4953930;28;20051;-72
2022/08/25 02:57:31;;;;;;;5.00;4.55;;;;;;;;;;4954191;28;20139;-73
2022/08/25 02:59:58;;;;;;;7.22;5.05;;;;;;;;;;4953217;28;20055;-73
2022/08/25 03:02:25;;;;;;;5.55;5.05;;;;;;;;;;4954247;28;20047;-72
2022/08/25 03:04:52;;;;;;;6.85;4.90;;;;;;;;;;4954170;28;20051;-72
2022/08/25 03:07:20;;;;;;;5.00;4.55;;;;;;;;;;4954034;28;20055;-72
2022/08/25 03:09:50;;;;;;;6.15;5.25;;;;;;;;;;4952202;29;20087;-72
2022/08/25 03:12:16;;;;;;;5.97;5.03;;;;;;;;;;4948725;28;20052;-73
2022/08/25 03:14:43;;;;;;;7.80;5.68;;;;;;;;;;4935882;29;20135;-73
2022/08/25 03:17:11;;;;;;;6.00;5.40;;;;;;;;;;4935464;29;20208;-73
2022/08/25 03:19:38;;;;;;;5.20;4.70;;;;;;;;;;4934602;29;20056;-73
2022/08/25 03:22:05;;;;;;;5.57;5.03;;;;;;;;;;4934831;29;20066;-73
2022/08/25 03:24:32;;;;;;;8.25;5.53;;;;;;;;;;4934887;29;20074;-73
2022/08/25 03:26:59;;;;;;;7.47;5.57;;;;;;;;;;4935262;29;20070;-73
2022/08/25 03:29:29;;;;;;;5.55;4.82;;;;;;;;;;4934773;29;20051;-74
2022/08/25 03:31:58;;;;;;;5.95;5.30;;;;;;;;;;4934491;29;20051;-73
2022/08/25 03:34:28;;;;;;;6.90;5.38;;;;;;;;;;4917716;29;20526;-73
2022/08/25 03:36:56;;;;;;;6.85;5.47;;;;;;;;;;4917853;29;20058;-73
2022/08/25 03:39:24;;;;;;;6.38;5.78;;;;;;;;;;4934600;29;20052;-73
2022/08/25 03:41:51;;;;;;;7.03;5.75;;;;;;;;;;4934431;29;20078;-73
2022/08/25 03:44:18;;;;;;;5.35;4.93;;;;;;;;;;4933064;29;20146;-74
2022/08/25 03:46:47;;;;;;;5.82;5.22;;;;;;;;;;4933140;29;20058;-72
2022/08/25 03:49:16;;;;;;;6.03;5.13;;;;;;;;;;4934283;29;20068;-72
2022/08/25 03:51:46;;;;;;;8.10;5.45;;;;;;;;;;4938541;29;20059;-73
2022/08/25 03:54:17;;;;;;;7.03;5.95;;;;;;;;;;4938095;29;20127;-73
2022/08/25 03:56:44;;;;;;;7.88;6.35;;;;;;;;;;4938153;29;20056;-73
2022/08/25 03:59:11;;;;;;;6.85;5.55;;;;;;;;;;4937880;29;20052;-72
2022/08/25 04:01:40;;;;;;;7.00;6.18;;;;;;;;;;4937114;29;20060;-73
2022/08/25 04:04:08;;;;;;;7.20;6.53;;;;;;;;;;4938045;29;20051;-73
2022/08/25 04:06:36;;;;;;;6.60;5.72;;;;;;;;;;4938139;29;20412;-73
2022/08/25 04:09:03;;;;;;;6.53;5.85;;;;;;;;;;4937540;29;20055;-73
2022/08/25 04:11:30;;;;;;;6.57;5.80;;;;;;;;;;4951383;29;20066;-73
2022/08/25 04:13:58;;;;;;;9.15;5.53;;;;;;;;;;4956832;28;20055;-74
2022/08/25 04:16:27;;;;;;;5.43;4.93;;;;;;;;;;4940450;29;20051;-73
2022/08/25 04:18:54;;;;;;;6.20;5.38;;;;;;;;;;4956919;28;20051;-73
2022/08/25 04:21:21;;;;;;;6.85;5.72;;;;;;;;;;4955608;29;20247;-72
2022/08/25 04:23:48;;;;;;;7.22;6.55;;;;;;;;;;4955548;29;20138;-73
2022/08/25 04:26:33;;;;;;;5.78;5.15;;;;;;;;;;4955624;29;20058;-73
2022/08/25 04:29:02;;;;;;;6.38;5.78;;;;;;;;;;4941081;29;20052;-73
2022/08/25 04:31:29;;;;;;;6.97;6.10;;;;;;;;;;4941571;29;20320;-73
2022/08/25 04:33:56;;;;;;;6.55;5.80;;;;;;;;;;4953836;29;20047;-73
2022/08/25 04:36:23;;;;;;;7.07;5.43;;;;;;;;;;4956537;28;20240;-73
2022/08/25 04:38:49;;;;;;;6.90;6.20;;;;;;;;;;4955012;29;20058;-73
2022/08/25 04:41:19;;;;;;;8.48;6.60;;;;;;;;;;4956411;28;20495;-72
2022/08/25 04:43:46;;;;;;;9.35;5.93;;;;;;;;;;4956585;28;20047;-73
2022/08/25 04:46:21;;;;;;;6.85;5.90;;;;;;;;;;4955143;29;20055;-72
2022/08/25 04:48:48;;;;;;;7.97;6.32;;;;;;;;;;4939689;29;20059;-73
2022/08/25 04:51:22;;;;;;;5.95;5.38;;;;;;;;;;4927772;29;20047;-73
2022/08/25 04:53:49;;;;;;;8.02;5.22;;;;;;;;;;4937272;29;20233;-72
2022/08/25 04:56:18;;;;;;;9.02;5.80;;;;;;;;;;4937307;29;20074;-73
2022/08/25 04:58:48;;;;;;;7.60;6.07;;;;;;;;;;4943915;29;20051;-72
2022/08/25 05:01:17;;;;;;;7.15;6.18;;;;;;;;;;4943698;29;20059;-72
2022/08/25 05:03:45;;;;;;;9.35;5.90;;;;;;;;;;4941524;28;20050;-72
2022/08/25 05:06:12;;;;;;;6.50;5.90;;;;;;;;;;4975147;28;20065;-73
2022/08/25 05:08:42;;;;;;;6.53;5.82;;;;;;;;;;4975555;28;20306;-71
2022/08/25 05:11:13;;;;;;;6.88;6.22;;;;;;;;;;4975136;28;20054;-71
2022/08/25 05:13:40;;;;;;;6.82;5.47;;;;;;;;;;4972347;28;20054;-72
2022/08/25 05:16:07;;;;;;;6.63;5.70;;;;;;;;;;4955690;28;20055;-72
2022/08/25 05:18:37;;;;;;;6.30;5.70;;;;;;;;;;4955560;28;20079;-71
2022/08/25 05:21:06;;;;;;;7.38;5.70;;;;;;;;;;4955945;28;20055;-71
2022/08/25 05:23:33;;;;;;;6.75;6.15;;;;;;;;;;4955768;28;20106;-71
2022/08/25 05:26:19;;;;;;;8.80;5.97;;;;;;;;;;4955497;28;20058;-72
2022/08/25 05:28:50;;;;;;;7.40;5.97;;;;;;;;;;4958936;28;20071;-71
2022/08/25 05:31:17;;;;;;;8.73;5.78;;;;;;;;;;4955170;28;20098;-72
2022/08/25 05:33:44;;;;;;;7.00;6.30;;;;;;;;;;4955387;28;20130;-71
2022/08/25 05:36:12;;;;;;;7.20;5.72;;;;;;;;;;4955012;28;20071;-72
2022/08/25 05:38:40;;;;;;;16.00;6.10;;;;;;;;;;4936283;29;20060;-71
2022/08/25 05:41:14;;;;;;;7.75;6.07;;;;;;;;;;4936345;29;20099;-71
2022/08/25 05:43:43;;;;;;;8.93;6.85;;;;;;;;;;4937520;29;20048;-71
2022/08/25 05:46:10;;;;;;;7.72;6.45;;;;;;;;;;4955245;28;20058;-72
2022/08/25 05:48:38;;;;;;;6.75;5.85;;;;;;;;;;4955063;28;20126;-72
2022/08/25 05:51:08;;;;;;;11.52;6.72;;;;;;;;;;4955094;28;20058;-72
2022/08/25 05:53:36;;;;;;;9.15;6.70;;;;;;;;;;4954296;29;20462;-72
2022/08/25 05:56:03;;;;;;;9.15;6.70;;;;;;;;;;4953973;29;20047;-71
2022/08/25 05:58:30;;;;;;;6.55;5.72;;;;;;;;;;4955141;28;20066;-72
2022/08/25 06:02:39;;;;;;;7.20;6.50;;;;;;;;;;4954869;29;20058;-72
2022/08/25 06:03:46;;;;;;;10.23;6.22;;;;;;;;;;4944800;29;20060;-70
2022/08/25 06:06:14;;;;;;;6.35;5.65;;;;;;;;;;4953749;29;20130;-69
2022/08/25 06:08:43;;;;;;;6.63;5.88;;;;;;;;;;4954704;28;20057;-70
2022/08/25 06:11:11;;;;;;;6.40;5.78;;;;;;;;;;4949024;28;20426;-69
2022/08/25 06:13:38;;;;;;;9.23;7.10;;;;;;;;;;4935615;29;20050;-70
2022/08/25 06:16:05;;;;;;;6.88;6.03;;;;;;;;;;4932679;29;20062;-69
2022/08/25 06:18:32;;;;;;;6.18;5.65;;;;;;;;;;4933813;29;20139;-69
2022/08/25 06:21:07;;;;;;;6.60;5.90;;;;;;;;;;4937055;29;20053;-68
2022/08/25 06:23:33;;;;;;;8.80;6.32;;;;;;;;;;4952891;28;20051;-69
2022/08/25 06:26:00;;;;;;;7.82;5.95;;;;;;;;;;4952673;28;20054;-68
2022/08/25 06:28:27;;;;;;;7.70;6.60;;;;;;;;;;4951349;28;20372;-69
2022/08/25 06:30:58;;;;;;;6.88;6.22;;;;;;;;;;4952467;28;20051;-70
2022/08/25 06:33:25;;;;;;;7.30;6.60;;;;;;;;;;4952374;28;20058;-68
2022/08/25 06:35:54;;;;;;;8.05;7.25;;;;;;;;;;4952472;28;20063;-68
2022/08/25 06:38:21;;;;;;;7.05;6.25;;;;;;;;;;4951222;29;20051;-68
2022/08/25 06:40:48;;;;;;;7.60;6.38;;;;;;;;;;4949045;29;20058;-68
2022/08/25 06:43:15;;;;;;;9.40;7.05;;;;;;;;;;4939852;29;20040;-68
2022/08/25 06:45:43;;;;;;;7.47;6.57;;;;;;;;;;4944931;29;20051;-68
2022/08/25 06:48:09;;;;;;;7.28;6.55;;;;;;;;;;4951882;28;20055;-68
2022/08/25 06:50:40;;;;;;;7.25;6.53;;;;;;;;;;4935817;28;20684;-68
2022/08/25 06:53:06;;;;;;;10.07;6.05;;;;;;;;;;4952417;29;20051;-68
2022/08/25 06:55:34;;;;;;;10.93;7.03;;;;;;;;;;4951700;28;20460;-67
2022/08/25 06:58:02;;;;;;;7.40;6.60;;;;;;;;;;4951989;28;20059;-68
2022/08/25 07:00:30;;;;;;;7.07;6.30;;;;;;;;;;4936114;28;20067;-68
2022/08/25 07:02:59;;;;;;;9.38;6.32;;;;;;;;;;4932650;29;20051;-68
2022/08/25 07:05:27;;;;;;;8.95;6.30;;;;;;;;;;4932797;29;20055;-68
2022/08/25 07:08:10;;;;;;;7.47;6.68;;;;;;;;;;4932467;29;20464;-68
2022/08/25 07:10:37;;;;;;;6.70;6.00;;;;;;;;;;4948385;29;20094;-72
2022/08/25 07:13:04;;;;;;;9.65;6.75;;;;;;;;;;4951733;28;20051;-71
2022/08/25 07:15:30;;;;;;;9.95;6.47;;;;;;;;;;4951718;28;20574;-70
2022/08/25 07:17:57;;;;;;;7.28;5.70;;;;;;;;;;4951780;28;20085;-69
2022/08/25 07:20:24;;;;;;;6.63;6.03;;;;;;;;;;4937667;29;20135;-70
2022/08/25 07:22:56;;;;;;;6.18;5.43;;;;;;;;;;4933539;29;20066;-69
2022/08/25 07:25:23;;;;;;;11.18;7.15;;;;;;;;;;4934077;29;20051;-69
2022/08/25 07:27:50;;;;;;;7.13;5.90;;;;;;;;;;4934965;29;20479;-69
2022/08/25 07:30:22;;;;;;;7.32;5.68;;;;;;;;;;4947158;29;20051;-69
2022/08/25 07:32:49;;;;;;;8.23;6.10;;;;;;;;;;4953088;28;20057;-69
2022/08/25 07:35:24;;;;;;;5.97;5.37;;;;;;;;;;4953623;28;20150;-69
2022/08/25 07:37:57;;;;;;;6.53;5.45;;;;;;;;;;4953422;28;20055;-69
2022/08/25 07:40:30;;;;;;;6.53;4.90;;;;;;;;;;4939409;28;20139;-69
2022/08/25 07:42:59;;;;;;;6.55;5.45;;;;;;;;;;4934389;29;20051;-69
2022/08/25 07:45:29;;;;;;;6.10;5.50;;;;;;;;;;4934113;29;20056;-69
2022/08/25 07:47:58;;;;;;;8.95;5.93;;;;;;;;;;4934397;29;20052;-69
2022/08/25 07:50:26;;;;;;;5.88;5.25;;;;;;;;;;4946367;29;20126;-69
2022/08/25 07:52:53;;;;;;;6.10;5.40;;;;;;;;;;4952326;29;20059;-69
2022/08/25 07:55:22;;;;;;;6.32;5.75;;;;;;;;;;4953249;29;20087;-69
2022/08/25 07:57:49;;;;;;;5.15;4.65;;;;;;;;;;4952287;29;20047;-69
2022/08/25 08:00:21;;;;;;;6.20;5.40;;;;;;;;;;4940399;28;20131;-68
2022/08/25 08:02:50;;;;;;;7.07;5.47;;;;;;;;;;4934408;29;20491;-69
2022/08/25 08:05:16;;;;;;;6.65;4.90;;;;;;;;;;4933950;29;20055;-68
2022/08/25 08:07:43;;;;;;;7.70;4.93;;;;;;;;;;4934330;29;20051;-69
2022/08/25 08:10:12;;;;;;;7.05;5.40;;;;;;;;;;4944855;29;20055;-69
2022/08/25 08:12:58;;;;;;;6.63;5.30;;;;;;;;;;4953740;29;20051;-69
2022/08/25 08:15:25;;;;;;;6.43;5.43;;;;;;;;;;4953128;28;20102;-68
2022/08/25 08:17:56;;;;;;;6.30;5.20;;;;;;;;;;4953005;28;20047;-69
2022/08/25 08:20:23;;;;;;;6.65;5.68;;;;;;;;;;4940469;28;20511;-68
2022/08/25 08:22:50;;;;;;;7.18;5.18;;;;;;;;;;4934193;29;20053;-69
2022/08/25 08:25:17;;;;;;;6.07;4.75;;;;;;;;;;4957487;23;20501;-66
2022/08/25 08:27:49;;;;;;;5.47;4.97;;;;;;;;;;4902066;29;20051;-66
2022/08/25 08:30:20;;;;;;;6.90;4.95;;;;;;;;;;4905279;29;20052;-66
2022/08/25 08:32:51;;;;;;;6.97;4.85;;;;;;;;;;4912786;29;20059;-66
2022/08/25 08:35:35;;;;;;;5.72;4.93;;;;;;;;;;4927602;29;20464;-66
2022/08/25 08:38:02;;;;;;;7.57;5.10;;;;;;;;;;4883502;29;20052;-66
2022/08/25 08:42:15;;;;;;;5.15;4.60;;;;;;;;;;4920030;29;20056;-66
2022/08/25 08:43:31;;;;;;;8.20;5.50;;;;;;;;;;4923033;29;20098;-66
2022/08/25 08:45:58;;;;;;;4.90;4.13;;;;;;;;;;4920429;29;20474;-67
2022/08/25 08:48:50;;;;;;;5.43;4.88;;;;;;;;;;4937377;29;20461;-66
2022/08/25 08:51:23;;;;;;;5.10;4.60;;;;;;;;;;4936762;29;20099;-66
2022/08/25 08:53:58;;;;;;;5.38;3.88;;;;;;;;;;4920509;29;20171;-67
2022/08/25 08:56:24;;;;;;;5.38;4.80;;;;;;;;;;4920044;29;20151;-67
2022/08/25 08:59:01;;;;;;;5.85;5.25;;;;;;;;;;4937004;29;20052;-67
2022/08/25 09:01:46;;;;;;;4.85;4.45;;;;;;;;;;4901653;29;20088;-67
2022/08/25 09:04:23;;;;;;;6.32;4.38;;;;;;;;;;4916880;29;20078;-66
2022/08/25 09:06:49;;;;;;;6.22;4.28;;;;;;;;;;4916625;29;20526;-66
2022/08/25 09:09:25;;;;;;;6.78;4.63;;;;;;;;;;4919075;29;20048;-66
2022/08/25 09:11:57;;;;;;;5.65;4.60;;;;;;;;;;4920249;29;20142;-66
2022/08/25 09:14:29;;;;;;;4.88;4.40;;;;;;;;;;4936761;29;20127;-66
2022/08/25 09:17:05;;;;;;;;;;;;;;;;;;4936909;29;20099;-66
2022/08/25 09:19:56;;;;;;;8.32;4.43;;;;;;;;;;4919366;29;20022;-67
2022/08/25 09:22:36;;;;;;;6.63;4.32;;;;;;;;;;4936447;29;20058;-67
2022/08/25 09:25:12;;;;;;;8.63;4.70;;;;;;;;;;4935185;29;20052;-67
2022/08/25 09:28:07;;;;;;;4.55;4.15;;;;;;;;;;4936440;29;20059;-68
2022/08/25 09:30:59;;;;;;;6.55;4.30;;;;;;;;;;4934639;29;20066;-68
2022/08/25 09:33:27;;;;;;;4.87;4.07;;;;;;;;;;4883062;29;20139;-68
2022/08/25 09:35:55;;;;;;;4.38;3.97;;;;;;;;;;4900596;29;20056;-68
2022/08/25 09:38:24;;;;;;;5.82;4.88;;;;;;;;;;4916032;29;20104;-68
2022/08/25 09:40:54;;;;;;;6.28;4.22;;;;;;;;;;4914116;29;20062;-67
2022/08/25 09:43:29;;;;;;;4.97;4.32;;;;;;;;;;4903876;29;20126;-68
2022/08/25 09:46:09;;;;;;;4.90;4.35;;;;;;;;;;4936083;29;20047;-68
2022/08/25 09:48:52;;;;;;;5.22;4.32;;;;;;;;;;4919269;29;20047;-67
2022/08/25 09:51:33;;;;;;;5.13;4.63;;;;;;;;;;4919425;29;20144;-68
2022/08/25 09:54:11;;;;;;;7.43;5.35;;;;;;;;;;4920093;29;20047;-67
2022/08/25 09:56:58;;;;;;;4.45;4.05;;;;;;;;;;4935826;29;20060;-68
2022/08/25 09:59:33;;;;;;;5.18;4.65;;;;;;;;;;4904536;29;20051;-68
2022/08/25 10:02:31;;;;;;;8.00;4.18;;;;;;;;;;4934432;29;20107;-68
2022/08/25 10:04:58;;;;;;;7.00;4.38;;;;;;;;;;4934745;29;20051;-68
2022/08/25 10:07:32;;;;;;;5.15;3.67;;;;;;;;;;4935640;29;20485;-68
2022/08/25 10:10:01;;;;;;;4.20;3.83;;;;;;;;;;4918484;29;20055;-67
2022/08/25 10:12:38;;;;;;;4.43;3.58;;;;;;;;;;4918964;29;20082;-67
2022/08/25 10:15:26;;;;;;;4.75;3.63;;;;;;;;;;4919419;29;20111;-67
2022/08/25 10:17:55;;;;;;;4.60;3.92;;;;;;;;;;4935472;29;20048;-67
2022/08/25 10:20:26;;;;;;;4.65;4.20;;;;;;;;;;4903408;29;20530;-68
2022/08/25 10:23:10;;;;;;;4.78;3.92;;;;;;;;;;4919214;29;20059;-68
2022/08/25 10:25:41;;;;;;;4.57;4.18;;;;;;;;;;4934158;29;20418;-67
2022/08/25 10:28:49;;;;;;;4.13;3.45;;;;;;;;;;4920619;29;20111;-67
2022/08/25 10:31:50;;;;;;;4.28;3.88;;;;;;;;;;4934611;29;20062;-68
2022/08/25 10:34:40;;;;;;;4.70;4.30;;;;;;;;;;4925899;29;20076;-68
2022/08/25 10:37:23;;;;;;;;;;;;;;;;;;4927384;29;20048;-68
2022/08/25 10:40:24;;;;;;;4.75;4.25;;;;;;;;;;4934031;29;19923;-68
2022/08/25 10:43:08;;;;;;;4.68;4.10;;;;;;;;;;4884939;29;20048;-68
2022/08/25 10:46:15;;;;;;;5.20;4.10;;;;;;;;;;4916120;29;20096;-68
2022/08/25 10:49:02;;;;;;;3.90;3.50;;;;;;;;;;4914912;29;20060;-67
2022/08/25 10:51:32;;;;;;;4.90;3.83;;;;;;;;;;4935006;29;20056;-68
2022/08/25 10:54:23;;;;;;;6.30;4.03;;;;;;;;;;4934847;29;20066;-67
2022/08/25 10:57:20;;;;;;;4.07;3.67;;;;;;;;;;4933941;29;20083;-68
2022/08/25 10:59:51;;;;;;;4.38;3.45;;;;;;;;;;4894889;29;20109;-68
2022/08/25 11:02:18;;;;;;;4.43;3.70;;;;;;;;;;4933195;29;20060;-68
2022/08/25 11:05:00;;;;;;;4.78;3.50;;;;;;;;;;4934750;29;20058;-68
2022/08/25 11:07:30;;;;;;;4.45;3.63;;;;;;;;;;4933597;29;20048;-68
2022/08/25 11:09:59;;;;;;;3.90;3.60;;;;;;;;;;4898810;29;20526;-68
2022/08/25 11:12:36;;;;;;;3.97;3.60;;;;;;;;;;4899100;29;20420;-68
2022/08/25 11:15:27;;;;;;;3.75;3.40;;;;;;;;;;4914425;29;20055;-66
2022/08/25 11:18:05;;;;;;;4.32;3.47;;;;;;;;;;4918188;29;20058;-66
2022/08/25 11:20:57;;;;;;;3.60;3.20;;;;;;;;;;4918773;29;20586;-67
2022/08/25 11:23:34;;;;;;;4.72;3.20;;;;;;;;;;4933398;29;20157;-67
2022/08/25 11:26:11;;;;;;;3.70;3.40;;;;;;;;;;4933150;29;20084;-66
2022/08/25 11:28:38;;;;;;;4.18;3.33;;;;;;;;;;4932567;29;20075;-66
2022/08/25 11:31:07;;;;;;;4.70;3.00;;;;;;;;;;4934433;29;20051;-68
2022/08/25 11:33:34;;;;;;;4.93;3.38;;;;;;;;;;4902290;29;20063;-67
2022/08/25 11:36:34;;;;;;;3.25;2.88;;;;;;;;;;4934662;29;20051;-68
2022/08/25 11:39:39;;;;;;;5.78;4.70;;;;;;;;;;4904524;29;20051;-68
2022/08/25 11:42:36;;;;;;;3.53;2.85;;;;;;;;;;4934369;29;20058;-67
2022/08/25 11:45:21;;;;;;;3.60;3.30;;;;;;;;;;4905067;29;20495;-67
2022/08/25 11:47:57;;;;;;;3.40;3.10;;;;;;;;;;4918731;29;20146;-67
2022/08/25 11:50:35;;;;;;;4.15;3.05;;;;;;;;;;4934518;29;20403;-67
2022/08/25 11:53:21;;;;;;;4.07;3.17;;;;;;;;;;4917465;29;20047;-67
2022/08/25 11:55:57;;;;;;;3.35;2.90;;;;;;;;;;4918567;29;20134;-67
2022/08/25 11:58:27;;;;;;;3.55;3.13;;;;;;;;;;4913090;29;20044;-68
2022/08/25 12:00:58;;;;;;;3.40;3.10;;;;;;;;;;4915308;29;20067;-67
2022/08/25 12:03:31;;;;;;;3.60;3.30;;;;;;;;;;4913754;29;20140;-67
2022/08/25 12:06:25;;;;;;;3.20;3.00;;;;;;;;;;4915016;29;20131;-67
2022/08/25 12:09:04;;;;;;;4.95;3.53;;;;;;;;;;4932539;29;20052;-67
2022/08/25 12:11:36;;;;;;;5.68;3.08;;;;;;;;;;4931329;29;20052;-66
2022/08/25 12:14:26;;;;;;;5.90;3.10;;;;;;;;;;4934562;29;20056;-66
2022/08/25 12:16:53;;;;;;;3.40;2.80;;;;;;;;;;4922034;29;20139;-68
2022/08/25 12:19:32;;;;;;;3.58;3.22;;;;;;;;;;4918042;29;20107;-66
2022/08/25 12:22:02;;;;;;;3.75;3.22;;;;;;;;;;4935369;29;20437;-73
2022/08/25 12:24:41;;;;;;;4.20;3.22;;;;;;;;;;4921755;29;20075;-69
2022/08/25 12:27:50;;;;;;;3.58;3.28;;;;;;;;;;4926653;29;20062;-70
2022/08/25 12:30:41;;;;;;;7.90;4.15;;;;;;;;;;4922498;29;20060;-69
2022/08/25 12:33:12;;;;;;;6.00;3.15;;;;;;;;;;4903070;29;20435;-68
2022/08/25 12:35:50;;;;;;;2.80;2.60;;;;;;;;;;4925471;29;20062;-69
2022/08/25 12:38:26;;;;;;;2.97;2.45;;;;;;;;;;4907285;29;20377;-70
2022/08/25 12:40:58;;;;;;;2.72;2.28;;;;;;;;;;4898829;29;20055;-69
2022/08/25 12:43:32;;;;;;;2.97;2.53;;;;;;;;;;4896055;29;20523;-72
2022/08/25 12:46:18;;;;;;;3.10;2.80;;;;;;;;;;4890685;29;20507;-70
2022/08/25 12:49:00;;;;;;;2.45;2.25;;;;;;;;;;4921814;29;20094;-70
2022/08/25 12:52:04;;;;;;;5.68;3.25;;;;;;;;;;4891563;29;20103;-68
2022/08/25 12:55:04;;;;;;;2.50;2.17;;;;;;;;;;4906679;29;20487;-73
2022/08/25 12:57:41;;;;;;;2.67;2.47;;;;;;;;;;4903711;29;20126;-71
2022/08/25 13:00:46;;;;;;;8.45;2.78;;;;;;;;;;4920001;29;20507;-73
2022/08/25 13:03:26;;;;;;;3.47;2.35;;;;;;;;;;4884655;29;20062;-72
2022/08/25 13:06:24;;;;;;;2.65;2.15;;;;;;;;;;4903676;29;20051;-71
2022/08/25 13:09:28;;;;;;;2.10;1.88;;;;;;;;;;4923036;29;20052;-75
2022/08/25 13:12:08;;;;;;;2.42;1.92;;;;;;;;;;4911376;29;20060;-74
2022/08/25 13:14:41;;;;;;;6.80;2.58;;;;;;;;;;4883790;29;20127;-71
2022/08/25 13:17:09;;;;;;;3.75;2.22;;;;;;;;;;4900468;29;20143;-70
2022/08/25 13:19:37;;;;;;;3.13;2.50;;;;;;;;;;4915328;29;20098;-70
2022/08/25 13:22:16;;;;;;;2.20;2.00;;;;;;;;;;4905973;29;20058;-69
2022/08/25 13:24:44;;;;;;;2.58;2.30;;;;;;;;;;4895683;29;20494;-71
2022/08/25 13:27:21;;;;;;;2.30;2.08;;;;;;;;;;4900503;29;20048;-68
2022/08/25 13:29:54;;;;;;;2.42;2.22;;;;;;;;;;4898769;29;20052;-67
2022/08/25 13:32:27;;;;;;;2.20;1.88;;;;;;;;;;4915257;29;20570;-69
2022/08/25 13:35:19;;;;;;;2.30;2.08;;;;;;;;;;4921654;29;20048;-69
2022/08/25 13:37:46;;;;;;;2.33;2.13;;;;;;;;;;4926142;29;20052;-68
2022/08/25 13:40:18;;;;;;;2.30;2.10;;;;;;;;;;4915095;29;20055;-66
2022/08/25 13:42:57;;;;;;;1.60;1.50;;;;;;;;;;4906224;29;20052;-68
2022/08/25 13:45:27;;;;;;;2.60;1.80;;;;;;;;;;4896287;29;20048;-69
2022/08/25 13:47:55;;;;;;;2.00;1.90;;;;;;;;;;4907354;29;20102;-69
2022/08/25 13:50:25;;;;;;;2.00;1.90;;;;;;;;;;4889467;29;20055;-70
2022/08/25 13:53:34;;;;;;;2.25;1.90;;;;;;;;;;4924222;29;20052;-68
2022/08/25 13:56:01;;;;;;;6.78;2.22;;;;;;;;;;4852188;29;20054;-70
2022/08/25 13:58:31;;;;;;;3.00;2.05;;;;;;;;;;4836791;29;20537;-68
2022/08/25 14:01:25;;;;;;;2.50;2.30;;;;;;;;;;4868987;29;20051;-67
2022/08/25 14:04:30;;;;;;;2.17;1.98;;;;;;;;;;4905435;29;20107;-69
2022/08/25 14:07:14;;;;;;;25.55;3.65;;;;;;;;;;4914082;29;20495;-70
2022/08/25 14:10:30;;;;;;;3.05;1.85;;;;;;;;;;4924016;29;20426;-69
2022/08/25 14:13:14;;;;;;;1.70;1.60;;;;;;;;;;4900616;29;20078;-71
2022/08/25 14:15:44;;;;;;;2.20;2.00;;;;;;;;;;4905437;29;20300;-69
2022/08/25 14:18:24;;;;;;;4.55;2.00;;;;;;;;;;4911886;29;20521;-68
2022/08/25 14:20:53;;;;;;;2.47;1.90;;;;;;;;;;4907438;29;20126;-67
2022/08/25 14:23:24;;;;;;;2.25;2.05;;;;;;;;;;4897640;29;20103;-67
2022/08/25 14:25:55;;;;;;;1.90;1.80;;;;;;;;;;4916047;29;20123;-67
2022/08/25 14:28:24;;;;;;;2.22;2.13;;;;;;;;;;4939509;23;20058;-71
2022/08/25 14:31:04;;;;;;;2.25;1.80;;;;;;;;;;4942302;29;20509;-70
2022/08/25 14:33:41;;;;;;;3.33;2.22;;;;;;;;;;4912382;29;20062;-72
2022/08/25 14:36:08;;;;;;;1.92;1.70;;;;;;;;;;4924116;29;20134;-70
2022/08/25 14:38:37;;;;;;;2.30;2.10;;;;;;;;;;4937649;29;20056;-70
2022/08/25 14:41:06;;;;;;;2.22;2.03;;;;;;;;;;4925882;29;20043;-71
2022/08/25 14:43:37;;;;;;;;;;;;;;;;;;4924441;29;20047;-71
2022/08/25 14:46:24;;;;;;;3.65;2.00;;;;;;;;;;4924423;29;19923;-72
2022/08/25 14:48:58;;;;;;;2.65;2.13;;;;;;;;;;4902733;29;20098;-72
2022/08/25 14:51:26;;;;;;;3.10;2.38;;;;;;;;;;4915830;29;20135;-74
2022/08/25 14:53:53;;;;;;;3.03;2.00;;;;;;;;;;4888916;29;20131;-73
2022/08/25 14:56:20;;;;;;;2.58;2.35;;;;;;;;;;4921596;29;20487;-70
2022/08/25 14:58:47;;;;;;;3.13;2.25;;;;;;;;;;4922647;29;20391;-69
2022/08/25 15:01:21;;;;;;;4.55;2.28;;;;;;;;;;4919009;29;20091;-69
2022/08/25 15:04:22;;;;;;;2.83;2.13;;;;;;;;;;4917946;29;20048;-69
2022/08/25 15:06:53;;;;;;;2.80;2.17;;;;;;;;;;4919292;29;20048;-69
2022/08/25 15:09:20;;;;;;;2.05;1.92;;;;;;;;;;4897403;29;20054;-70
2022/08/25 15:11:50;;;;;;;2.20;2.00;;;;;;;;;;4918392;29;20103;-70
2022/08/25 15:14:21;;;;;;;2.38;2.17;;;;;;;;;;4902472;29;20148;-69
2022/08/25 15:16:58;;;;;;;3.60;1.98;;;;;;;;;;4924460;29;20127;-69
2022/08/25 15:19:26;;;;;;;3.40;2.63;;;;;;;;;;4904349;29;20059;-69
2022/08/25 15:21:53;;;;;;;6.40;2.75;;;;;;;;;;4923684;29;20060;-69
2022/08/25 15:24:24;;;;;;;2.58;2.38;;;;;;;;;;4918477;29;20150;-69
2022/08/25 15:26:53;;;;;;;2.10;2.00;;;;;;;;;;4920906;29;20051;-69
2022/08/25 15:29:28;;;;;;;2.53;2.10;;;;;;;;;;4920934;29;20059;-69